sensor_id;sensor_type;location;lat;lon;timestamp;temperature;humidity
3705;DHT22;1868;48.918;9.438;2022-08-20T00:02:13;18.60;97.40
3705;DHT22;1868;48.918;9.438;2022-08-20T00:04:42;18.50;97.40
3705;DHT22;1868;48.918;9.438;2022-08-20T00:07:11;18.50;97.40
3705;DHT22;1868;48.918;9.438;2022-08-20T00:09:40;18.50;97.40
3705;DHT22;1868;48.918;9.438;2022-08-20T00:12:10;18.50;97.40
3705;DHT22;1868;48.918;9.438;2022-08-20T00:14:41;18.50;97.40
3705;DHT22;1868;48.918;9.438;2022-08-20T00:17:09;18.40;97.40
3705;DHT22;1868;48.918;9.438;2022-08-20T00:19:38;18.40;97.40
3705;DHT22;1868;48.918;9.438;2022-08-20T00:22:06;18.40;97.40
3705;DHT22;1868;48.918;9.438;2022-08-20T00:24:34;18.40;97.40
3705;DHT22;1868;48.918;9.438;2022-08-20T00:27:03;18.30;97.40
3705;DHT22;1868;48.918;9.438;2022-08-20T00:29:31;18.20;97.40
3705;DHT22;1868;48.918;9.438;2022-08-20T00:32:01;18.20;97.40
3705;DHT22;1868;48.918;9.438;2022-08-20T00:34:30;18.20;97.40
3705;DHT22;1868;48.918;9.438;2022-08-20T00:36:58;18.10;97.40
3705;DHT22;1868;48.918;9.438;2022-08-20T00:39:26;18.10;97.40
3705;DHT22;1868;48.918;9.438;2022-08-20T00:41:55;18.10;97.40
3705;DHT22;1868;48.918;9.438;2022-08-20T00:44:23;18.10;97.40
3705;DHT22;1868;48.918;9.438;2022-08-20T00:46:52;18.10;97.40
3705;DHT22;1868;48.918;9.438;2022-08-20T00:49:24;18.00;97.40
3705;DHT22;1868;48.918;9.438;2022-08-20T00:51:58;18.00;97.40
3705;DHT22;1868;48.918;9.438;2022-08-20T00:54:31;17.90;97.40
3705;DHT22;1868;48.918;9.438;2022-08-20T00:57:05;17.80;97.40
3705;DHT22;1868;48.918;9.438;2022-08-20T00:59:36;17.80;97.40
3705;DHT22;1868;48.918;9.438;2022-08-20T01:02:09;17.80;97.40
3705;DHT22;1868;48.918;9.438;2022-08-20T01:04:41;17.70;97.40
3705;DHT22;1868;48.918;9.438;2022-08-20T01:07:12;17.70;97.40
3705;DHT22;1868;48.918;9.438;2022-08-20T01:09:40;17.60;97.40
3705;DHT22;1868;48.918;9.438;2022-08-20T01:12:25;17.60;97.40
3705;DHT22;1868;48.918;9.438;2022-08-20T01:14:56;17.50;97.40
3705;DHT22;1868;48.918;9.438;2022-08-20T01:17:28;17.50;97.40
3705;DHT22;1868;48.918;9.438;2022-08-20T01:20:03;17.50;97.40
3705;DHT22;1868;48.918;9.438;2022-08-20T01:22:45;17.40;97.40
3705;DHT22;1868;48.918;9.438;2022-08-20T01:25:45;17.40;97.40
3705;DHT22;1868;48.918;9.438;2022-08-20T01:28:20;17.40;97.40
3705;DHT22;1868;48.918;9.438;2022-08-20T01:30:57;17.40;97.40
3705;DHT22;1868;48.918;9.438;2022-08-20T01:33:25;17.40;97.40
3705;DHT22;1868;48.918;9.438;2022-08-20T01:35:54;17.50;97.40
3705;DHT22;1868;48.918;9.438;2022-08-20T01:38:23;17.50;97.40
3705;DHT22;1868;48.918;9.438;2022-08-20T01:41:21;17.50;97.40
3705;DHT22;1868;48.918;9.438;2022-08-20T01:44:02;17.60;97.40
3705;DHT22;1868;48.918;9.438;2022-08-20T01:46:39;17.60;97.40
3705;DHT22;1868;48.918;9.438;2022-08-20T01:49:13;17.60;97.40
3705;DHT22;1868;48.918;9.438;2022-08-20T01:51:50;17.60;97.40
3705;DHT22;1868;48.918;9.438;2022-08-20T01:54:20;17.60;97.40
3705;DHT22;1868;48.918;9.438;2022-08-20T01:56:53;17.70;97.40
3705;DHT22;1868;48.918;9.438;2022-08-20T01:59:23;17.60;97.40
3705;DHT22;1868;48.918;9.438;2022-08-20T02:01:52;17.60;97.40
3705;DHT22;1868;48.918;9.438;2022-08-20T02:04:22;17.60;97.40
3705;DHT22;1868;48.918;9.438;2022-08-20T02:06:52;17.60;97.40
3705;DHT22;1868;48.918;9.438;2022-08-20T02:09:25;17.60;97.40
3705;DHT22;1868;48.918;9.438;2022-08-20T02:11:55;17.60;97.40
3705;DHT22;1868;48.918;9.438;2022-08-20T02:14:25;17.60;97.40
3705;DHT22;1868;48.918;9.438;2022-08-20T02:16:53;17.70;97.40
3705;DHT22;1868;48.918;9.438;2022-08-20T02:19:27;17.70;97.40
3705;DHT22;1868;48.918;9.438;2022-08-20T02:22:01;17.70;97.40
3705;DHT22;1868;48.918;9.438;2022-08-20T02:24:32;17.70;97.40
3705;DHT22;1868;48.918;9.438;2022-08-20T02:27:02;17.70;97.40
3705;DHT22;1868;48.918;9.438;2022-08-20T02:29:31;17.70;97.40
3705;DHT22;1868;48.918;9.438;2022-08-20T02:31:59;17.70;97.40
3705;DHT22;1868;48.918;9.438;2022-08-20T02:34:47;17.70;97.40
3705;DHT22;1868;48.918;9.438;2022-08-20T02:37:16;17.70;97.40
3705;DHT22;1868;48.918;9.438;2022-08-20T02:39:45;17.70;97.40
3705;DHT22;1868;48.918;9.438;2022-08-20T02:42:15;17.70;97.40
3705;DHT22;1868;48.918;9.438;2022-08-20T02:44:43;17.60;97.40
3705;DHT22;1868;48.918;9.438;2022-08-20T02:47:12;17.60;97.40
3705;DHT22;1868;48.918;9.438;2022-08-20T02:49:40;17.60;97.40
3705;DHT22;1868;48.918;9.438;2022-08-20T02:52:08;17.60;97.40
3705;DHT22;1868;48.918;9.438;2022-08-20T02:54:36;17.60;97.40
3705;DHT22;1868;48.918;9.438;2022-08-20T02:57:10;17.50;97.40
3705;DHT22;1868;48.918;9.438;2022-08-20T02:59:40;17.50;97.40
3705;DHT22;1868;48.918;9.438;2022-08-20T03:02:08;17.40;97.40
3705;DHT22;1868;48.918;9.438;2022-08-20T03:04:37;17.40;97.40
3705;DHT22;1868;48.918;9.438;2022-08-20T03:07:06;17.40;97.40
3705;DHT22;1868;48.918;9.438;2022-08-20T03:09:37;17.30;97.40
3705;DHT22;1868;48.918;9.438;2022-08-20T03:12:06;17.30;97.40
3705;DHT22;1868;48.918;9.438;2022-08-20T03:14:35;17.20;97.40
3705;DHT22;1868;48.918;9.438;2022-08-20T03:17:05;17.10;97.40
3705;DHT22;1868;48.918;9.438;2022-08-20T03:19:34;17.10;97.40
3705;DHT22;1868;48.918;9.438;2022-08-20T03:22:02;17.00;97.40
3705;DHT22;1868;48.918;9.438;2022-08-20T03:24:31;17.00;97.40
3705;DHT22;1868;48.918;9.438;2022-08-20T03:26:59;17.00;97.40
3705;DHT22;1868;48.918;9.438;2022-08-20T03:29:27;17.00;97.40
3705;DHT22;1868;48.918;9.438;2022-08-20T03:31:55;17.00;97.40
3705;DHT22;1868;48.918;9.438;2022-08-20T03:34:25;17.00;97.40
3705;DHT22;1868;48.918;9.438;2022-08-20T03:36:53;17.00;97.40
3705;DHT22;1868;48.918;9.438;2022-08-20T03:39:21;17.00;97.40
3705;DHT22;1868;48.918;9.438;2022-08-20T03:41:50;17.00;97.40
3705;DHT22;1868;48.918;9.438;2022-08-20T03:44:18;17.10;97.40
3705;DHT22;1868;48.918;9.438;2022-08-20T03:46:46;17.10;97.40
3705;DHT22;1868;48.918;9.438;2022-08-20T03:49:14;17.10;97.40
3705;DHT22;1868;48.918;9.438;2022-08-20T03:51:44;17.10;97.40
3705;DHT22;1868;48.918;9.438;2022-08-20T03:54:24;17.00;97.40
3705;DHT22;1868;48.918;9.438;2022-08-20T03:56:59;17.00;97.40
3705;DHT22;1868;48.918;9.438;2022-08-20T03:59:28;16.90;97.40
3705;DHT22;1868;48.918;9.438;2022-08-20T04:01:58;17.00;97.40
3705;DHT22;1868;48.918;9.438;2022-08-20T04:04:27;17.00;97.40
3705;DHT22;1868;48.918;9.438;2022-08-20T04:06:57;17.00;97.40
3705;DHT22;1868;48.918;9.438;2022-08-20T04:09:25;17.00;97.40
3705;DHT22;1868;48.918;9.438;2022-08-20T04:11:54;17.00;97.40
3705;DHT22;1868;48.918;9.438;2022-08-20T04:14:24;17.10;97.40
3705;DHT22;1868;48.918;9.438;2022-08-20T04:16:55;17.00;97.40
3705;DHT22;1868;48.918;9.438;2022-08-20T04:19:23;17.00;97.40
3705;DHT22;1868;48.918;9.438;2022-08-20T04:21:51;17.00;97.40
3705;DHT22;1868;48.918;9.438;2022-08-20T04:24:21;17.00;97.40
3705;DHT22;1868;48.918;9.438;2022-08-20T04:26:59;17.00;97.40
3705;DHT22;1868;48.918;9.438;2022-08-20T04:29:31;17.00;97.40
3705;DHT22;1868;48.918;9.438;2022-08-20T04:32:03;17.00;97.40
3705;DHT22;1868;48.918;9.438;2022-08-20T04:34:33;17.00;97.40
3705;DHT22;1868;48.918;9.438;2022-08-20T04:37:03;16.90;97.40
3705;DHT22;1868;48.918;9.438;2022-08-20T04:39:44;16.90;97.40
3705;DHT22;1868;48.918;9.438;2022-08-20T04:42:36;16.90;97.40
3705;DHT22;1868;48.918;9.438;2022-08-20T04:45:10;17.00;97.40
3705;DHT22;1868;48.918;9.438;2022-08-20T04:47:38;17.00;97.40
3705;DHT22;1868;48.918;9.438;2022-08-20T04:50:08;17.00;97.40
3705;DHT22;1868;48.918;9.438;2022-08-20T04:52:37;16.90;97.40
3705;DHT22;1868;48.918;9.438;2022-08-20T04:55:08;17.00;97.40
3705;DHT22;1868;48.918;9.438;2022-08-20T04:57:36;16.90;97.40
3705;DHT22;1868;48.918;9.438;2022-08-20T05:00:08;16.90;97.40
3705;DHT22;1868;48.918;9.438;2022-08-20T05:02:38;16.90;97.40
3705;DHT22;1868;48.918;9.438;2022-08-20T05:05:08;16.90;97.40
3705;DHT22;1868;48.918;9.438;2022-08-20T05:07:37;16.90;97.40
3705;DHT22;1868;48.918;9.438;2022-08-20T05:10:10;16.90;97.40
3705;DHT22;1868;48.918;9.438;2022-08-20T05:12:41;16.90;97.40
3705;DHT22;1868;48.918;9.438;2022-08-20T05:15:23;16.90;97.40
3705;DHT22;1868;48.918;9.438;2022-08-20T05:17:54;17.00;97.40
3705;DHT22;1868;48.918;9.438;2022-08-20T05:20:26;17.10;97.40
3705;DHT22;1868;48.918;9.438;2022-08-20T05:22:56;17.20;97.40
3705;DHT22;1868;48.918;9.438;2022-08-20T05:25:27;17.20;97.40
3705;DHT22;1868;48.918;9.438;2022-08-20T05:27:57;17.30;97.40
3705;DHT22;1868;48.918;9.438;2022-08-20T05:30:27;17.40;97.40
3705;DHT22;1868;48.918;9.438;2022-08-20T05:33:00;17.40;97.40
3705;DHT22;1868;48.918;9.438;2022-08-20T05:35:30;17.50;97.40
3705;DHT22;1868;48.918;9.438;2022-08-20T05:38:00;17.60;97.40
3705;DHT22;1868;48.918;9.438;2022-08-20T05:40:31;17.70;97.40
3705;DHT22;1868;48.918;9.438;2022-08-20T05:43:00;17.70;97.40
3705;DHT22;1868;48.918;9.438;2022-08-20T05:45:31;17.80;97.40
3705;DHT22;1868;48.918;9.438;2022-08-20T05:48:03;17.80;97.40
3705;DHT22;1868;48.918;9.438;2022-08-20T05:50:32;17.80;97.40
3705;DHT22;1868;48.918;9.438;2022-08-20T05:53:01;17.90;97.40
3705;DHT22;1868;48.918;9.438;2022-08-20T05:55:31;17.90;97.40
3705;DHT22;1868;48.918;9.438;2022-08-20T05:58:00;18.00;97.40
3705;DHT22;1868;48.918;9.438;2022-08-20T06:00:34;18.10;97.40
3705;DHT22;1868;48.918;9.438;2022-08-20T06:03:03;18.10;97.40
3705;DHT22;1868;48.918;9.438;2022-08-20T06:05:48;18.10;97.40
3705;DHT22;1868;48.918;9.438;2022-08-20T06:08:17;18.10;97.40
3705;DHT22;1868;48.918;9.438;2022-08-20T06:10:46;18.20;97.40
3705;DHT22;1868;48.918;9.438;2022-08-20T06:13:14;18.20;97.40
3705;DHT22;1868;48.918;9.438;2022-08-20T06:15:43;18.20;97.40
3705;DHT22;1868;48.918;9.438;2022-08-20T06:18:11;18.20;97.40
3705;DHT22;1868;48.918;9.438;2022-08-20T06:20:54;18.20;97.40
3705;DHT22;1868;48.918;9.438;2022-08-20T06:23:23;18.30;97.40
3705;DHT22;1868;48.918;9.438;2022-08-20T06:25:54;18.30;97.40
3705;DHT22;1868;48.918;9.438;2022-08-20T06:28:22;18.40;97.40
3705;DHT22;1868;48.918;9.438;2022-08-20T06:30:51;18.50;97.40
3705;DHT22;1868;48.918;9.438;2022-08-20T06:33:19;18.60;97.40
3705;DHT22;1868;48.918;9.438;2022-08-20T06:35:47;18.70;97.40
3705;DHT22;1868;48.918;9.438;2022-08-20T06:38:16;18.80;97.40
3705;DHT22;1868;48.918;9.438;2022-08-20T06:40:44;18.90;97.40
3705;DHT22;1868;48.918;9.438;2022-08-20T06:43:14;19.00;97.40
3705;DHT22;1868;48.918;9.438;2022-08-20T06:45:43;19.10;97.40
3705;DHT22;1868;48.918;9.438;2022-08-20T06:48:12;19.20;97.40
3705;DHT22;1868;48.918;9.438;2022-08-20T06:50:43;19.20;97.40
3705;DHT22;1868;48.918;9.438;2022-08-20T06:53:17;19.30;97.40
3705;DHT22;1868;48.918;9.438;2022-08-20T06:55:49;19.40;97.40
3705;DHT22;1868;48.918;9.438;2022-08-20T06:58:21;19.50;97.40
3705;DHT22;1868;48.918;9.438;2022-08-20T07:01:04;19.50;97.40
3705;DHT22;1868;48.918;9.438;2022-08-20T07:03:36;19.60;97.40
3705;DHT22;1868;48.918;9.438;2022-08-20T07:06:08;19.60;97.40
3705;DHT22;1868;48.918;9.438;2022-08-20T07:08:52;19.60;97.40
3705;DHT22;1868;48.918;9.438;2022-08-20T07:11:21;19.60;97.40
3705;DHT22;1868;48.918;9.438;2022-08-20T07:13:56;19.60;97.40
3705;DHT22;1868;48.918;9.438;2022-08-20T07:16:25;19.60;97.40
3705;DHT22;1868;48.918;9.438;2022-08-20T07:18:53;19.70;97.40
3705;DHT22;1868;48.918;9.438;2022-08-20T07:21:22;19.80;97.40
3705;DHT22;1868;48.918;9.438;2022-08-20T07:23:50;19.80;97.40
3705;DHT22;1868;48.918;9.438;2022-08-20T07:26:19;20.00;97.40
3705;DHT22;1868;48.918;9.438;2022-08-20T07:28:48;20.10;97.40
3705;DHT22;1868;48.918;9.438;2022-08-20T07:31:17;20.10;97.40
3705;DHT22;1868;48.918;9.438;2022-08-20T07:34:03;20.10;97.40
3705;DHT22;1868;48.918;9.438;2022-08-20T07:36:32;20.10;97.40
3705;DHT22;1868;48.918;9.438;2022-08-20T07:39:01;20.10;97.40
3705;DHT22;1868;48.918;9.438;2022-08-20T07:41:32;20.10;97.40
3705;DHT22;1868;48.918;9.438;2022-08-20T07:44:01;20.10;97.40
3705;DHT22;1868;48.918;9.438;2022-08-20T07:46:33;20.20;97.40
3705;DHT22;1868;48.918;9.438;2022-08-20T07:49:01;20.30;97.40
3705;DHT22;1868;48.918;9.438;2022-08-20T07:51:35;20.30;97.40
3705;DHT22;1868;48.918;9.438;2022-08-20T07:54:04;20.30;97.40
3705;DHT22;1868;48.918;9.438;2022-08-20T07:56:58;20.40;97.40
3705;DHT22;1868;48.918;9.438;2022-08-20T08:00:28;20.40;97.40
3705;DHT22;1868;48.918;9.438;2022-08-20T08:03:10;20.60;97.40
3705;DHT22;1868;48.918;9.438;2022-08-20T08:06:15;20.70;97.40
3705;DHT22;1868;48.918;9.438;2022-08-20T08:08:56;20.90;97.40
3705;DHT22;1868;48.918;9.438;2022-08-20T08:11:28;21.00;97.40
3705;DHT22;1868;48.918;9.438;2022-08-20T08:13:59;21.20;97.40
3705;DHT22;1868;48.918;9.438;2022-08-20T08:16:28;21.40;97.40
3705;DHT22;1868;48.918;9.438;2022-08-20T08:19:00;21.50;97.40
3705;DHT22;1868;48.918;9.438;2022-08-20T08:21:29;21.70;97.40
3705;DHT22;1868;48.918;9.438;2022-08-20T08:23:58;21.60;97.40
3705;DHT22;1868;48.918;9.438;2022-08-20T08:26:27;21.70;97.40
3705;DHT22;1868;48.918;9.438;2022-08-20T08:28:55;21.80;97.40
3705;DHT22;1868;48.918;9.438;2022-08-20T08:31:24;21.90;97.40
3705;DHT22;1868;48.918;9.438;2022-08-20T08:33:53;22.00;97.40
3705;DHT22;1868;48.918;9.438;2022-08-20T08:36:23;22.20;97.40
3705;DHT22;1868;48.918;9.438;2022-08-20T08:38:53;22.30;97.40
3705;DHT22;1868;48.918;9.438;2022-08-20T08:41:27;22.40;97.40
3705;DHT22;1868;48.918;9.438;2022-08-20T08:44:03;22.50;97.40
3705;DHT22;1868;48.918;9.438;2022-08-20T08:46:38;22.60;97.40
3705;DHT22;1868;48.918;9.438;2022-08-20T08:49:11;22.70;97.40
3705;DHT22;1868;48.918;9.438;2022-08-20T08:51:44;22.90;97.40
3705;DHT22;1868;48.918;9.438;2022-08-20T08:54:17;23.00;97.40
3705;DHT22;1868;48.918;9.438;2022-08-20T08:56:48;23.20;97.40
3705;DHT22;1868;48.918;9.438;2022-08-20T08:59:18;23.30;97.40
3705;DHT22;1868;48.918;9.438;2022-08-20T09:01:49;23.40;97.40
3705;DHT22;1868;48.918;9.438;2022-08-20T09:04:27;23.60;97.40
3705;DHT22;1868;48.918;9.438;2022-08-20T09:07:01;23.70;97.40
3705;DHT22;1868;48.918;9.438;2022-08-20T09:09:33;23.90;97.40
3705;DHT22;1868;48.918;9.438;2022-08-20T09:12:06;24.00;97.40
3705;DHT22;1868;48.918;9.438;2022-08-20T09:14:35;24.10;97.40
3705;DHT22;1868;48.918;9.438;2022-08-20T09:17:04;24.10;97.40
3705;DHT22;1868;48.918;9.438;2022-08-20T09:19:33;24.10;97.40
3705;DHT22;1868;48.918;9.438;2022-08-20T09:22:07;24.00;97.40
3705;DHT22;1868;48.918;9.438;2022-08-20T09:24:37;24.00;97.40
3705;DHT22;1868;48.918;9.438;2022-08-20T09:27:06;23.90;97.40
3705;DHT22;1868;48.918;9.438;2022-08-20T09:29:35;23.90;97.40
3705;DHT22;1868;48.918;9.438;2022-08-20T09:32:05;23.90;97.40
3705;DHT22;1868;48.918;9.438;2022-08-20T09:34:36;23.80;97.40
3705;DHT22;1868;48.918;9.438;2022-08-20T09:37:07;23.70;97.40
3705;DHT22;1868;48.918;9.438;2022-08-20T09:39:36;23.70;97.40
3705;DHT22;1868;48.918;9.438;2022-08-20T09:42:08;23.60;97.40
3705;DHT22;1868;48.918;9.438;2022-08-20T09:44:38;23.50;97.40
3705;DHT22;1868;48.918;9.438;2022-08-20T09:47:07;23.50;97.40
3705;DHT22;1868;48.918;9.438;2022-08-20T09:49:36;23.50;97.40
3705;DHT22;1868;48.918;9.438;2022-08-20T09:52:08;23.60;97.40
3705;DHT22;1868;48.918;9.438;2022-08-20T09:54:39;23.60;97.40
3705;DHT22;1868;48.918;9.438;2022-08-20T09:57:14;23.60;97.40
3705;DHT22;1868;48.918;9.438;2022-08-20T09:59:46;24.70;97.40
3705;DHT22;1868;48.918;9.438;2022-08-20T10:02:17;26.40;97.40
3705;DHT22;1868;48.918;9.438;2022-08-20T10:04:45;28.00;96.80
3705;DHT22;1868;48.918;9.438;2022-08-20T10:07:15;29.30;92.40
3705;DHT22;1868;48.918;9.438;2022-08-20T10:09:43;30.10;88.40
3705;DHT22;1868;48.918;9.438;2022-08-20T10:12:12;30.70;82.80
3705;DHT22;1868;48.918;9.438;2022-08-20T10:14:40;31.20;79.90
3705;DHT22;1868;48.918;9.438;2022-08-20T10:17:08;30.70;81.40
3705;DHT22;1868;48.918;9.438;2022-08-20T10:19:37;30.60;82.80
3705;DHT22;1868;48.918;9.438;2022-08-20T10:22:05;31.50;78.40
3705;DHT22;1868;48.918;9.438;2022-08-20T10:24:35;31.80;75.80
3705;DHT22;1868;48.918;9.438;2022-08-20T10:27:05;32.10;72.60
3705;DHT22;1868;48.918;9.438;2022-08-20T10:29:33;31.60;78.20
3705;DHT22;1868;48.918;9.438;2022-08-20T10:32:09;31.30;78.90
3705;DHT22;1868;48.918;9.438;2022-08-20T10:34:39;30.80;80.00
3705;DHT22;1868;48.918;9.438;2022-08-20T10:37:09;30.30;80.00
3705;DHT22;1868;48.918;9.438;2022-08-20T10:39:41;30.00;82.50
3705;DHT22;1868;48.918;9.438;2022-08-20T10:42:09;29.60;82.70
3705;DHT22;1868;48.918;9.438;2022-08-20T10:44:37;29.30;83.20
3705;DHT22;1868;48.918;9.438;2022-08-20T10:47:18;29.00;82.30
3705;DHT22;1868;48.918;9.438;2022-08-20T10:49:49;29.00;84.00
3705;DHT22;1868;48.918;9.438;2022-08-20T10:52:19;28.90;84.70
3705;DHT22;1868;48.918;9.438;2022-08-20T10:54:50;29.00;85.10
3705;DHT22;1868;48.918;9.438;2022-08-20T10:57:21;29.00;83.20
3705;DHT22;1868;48.918;9.438;2022-08-20T10:59:54;29.20;83.80
3705;DHT22;1868;48.918;9.438;2022-08-20T11:02:24;28.90;85.50
3705;DHT22;1868;48.918;9.438;2022-08-20T11:04:53;29.20;86.60
3705;DHT22;1868;48.918;9.438;2022-08-20T11:07:25;29.60;84.10
3705;DHT22;1868;48.918;9.438;2022-08-20T11:10:16;29.90;78.60
3705;DHT22;1868;48.918;9.438;2022-08-20T11:12:45;29.70;81.70
3705;DHT22;1868;48.918;9.438;2022-08-20T11:15:14;29.40;81.00
3705;DHT22;1868;48.918;9.438;2022-08-20T11:17:43;29.20;81.90
3705;DHT22;1868;48.918;9.438;2022-08-20T11:20:14;28.90;81.90
3705;DHT22;1868;48.918;9.438;2022-08-20T11:22:43;28.70;85.30
3705;DHT22;1868;48.918;9.438;2022-08-20T11:25:12;29.00;85.80
3705;DHT22;1868;48.918;9.438;2022-08-20T11:27:52;29.50;83.40
3705;DHT22;1868;48.918;9.438;2022-08-20T11:30:24;30.40;79.50
3705;DHT22;1868;48.918;9.438;2022-08-20T11:33:00;30.30;77.10
3705;DHT22;1868;48.918;9.438;2022-08-20T11:35:30;30.10;76.50
3705;DHT22;1868;48.918;9.438;2022-08-20T11:38:15;29.70;77.40
3705;DHT22;1868;48.918;9.438;2022-08-20T11:40:45;29.00;80.60
3705;DHT22;1868;48.918;9.438;2022-08-20T11:43:15;28.40;85.80
3705;DHT22;1868;48.918;9.438;2022-08-20T11:45:46;27.80;90.30
3705;DHT22;1868;48.918;9.438;2022-08-20T11:48:15;27.00;91.90
3705;DHT22;1868;48.918;9.438;2022-08-20T11:50:48;26.50;93.30
3705;DHT22;1868;48.918;9.438;2022-08-20T11:53:26;26.10;94.80
3705;DHT22;1868;48.918;9.438;2022-08-20T11:55:57;25.70;95.90
3705;DHT22;1868;48.918;9.438;2022-08-20T11:58:27;25.50;96.90
3705;DHT22;1868;48.918;9.438;2022-08-20T12:00:55;25.20;97.40
3705;DHT22;1868;48.918;9.438;2022-08-20T12:03:24;24.90;97.40
3705;DHT22;1868;48.918;9.438;2022-08-20T12:05:52;24.80;97.40
3705;DHT22;1868;48.918;9.438;2022-08-20T12:08:23;24.70;97.40
3705;DHT22;1868;48.918;9.438;2022-08-20T12:10:55;24.60;97.40
3705;DHT22;1868;48.918;9.438;2022-08-20T12:13:25;24.50;97.40
3705;DHT22;1868;48.918;9.438;2022-08-20T12:16:14;24.50;97.40
3705;DHT22;1868;48.918;9.438;2022-08-20T12:18:46;24.50;97.40
3705;DHT22;1868;48.918;9.438;2022-08-20T12:21:15;24.50;97.40
3705;DHT22;1868;48.918;9.438;2022-08-20T12:23:44;24.40;97.40
3705;DHT22;1868;48.918;9.438;2022-08-20T12:26:13;24.40;97.40
3705;DHT22;1868;48.918;9.438;2022-08-20T12:28:44;24.40;97.40
3705;DHT22;1868;48.918;9.438;2022-08-20T12:31:12;24.50;97.40
3705;DHT22;1868;48.918;9.438;2022-08-20T12:33:40;24.40;97.40
3705;DHT22;1868;48.918;9.438;2022-08-20T12:36:08;24.40;97.40
3705;DHT22;1868;48.918;9.438;2022-08-20T12:38:37;24.40;97.40
3705;DHT22;1868;48.918;9.438;2022-08-20T12:41:06;24.40;97.40
3705;DHT22;1868;48.918;9.438;2022-08-20T12:43:34;24.30;97.40
3705;DHT22;1868;48.918;9.438;2022-08-20T12:46:04;24.30;97.40
3705;DHT22;1868;48.918;9.438;2022-08-20T12:48:33;24.20;97.40
3705;DHT22;1868;48.918;9.438;2022-08-20T12:51:01;24.20;97.40
3705;DHT22;1868;48.918;9.438;2022-08-20T12:53:29;24.20;97.40
3705;DHT22;1868;48.918;9.438;2022-08-20T12:55:58;24.10;97.40
3705;DHT22;1868;48.918;9.438;2022-08-20T12:58:28;24.00;97.40
3705;DHT22;1868;48.918;9.438;2022-08-20T13:00:56;24.00;97.40
3705;DHT22;1868;48.918;9.438;2022-08-20T13:03:26;24.00;97.40
3705;DHT22;1868;48.918;9.438;2022-08-20T13:05:59;24.00;97.40
3705;DHT22;1868;48.918;9.438;2022-08-20T13:08:28;24.10;97.40
3705;DHT22;1868;48.918;9.438;2022-08-20T13:10:57;24.20;97.40
3705;DHT22;1868;48.918;9.438;2022-08-20T13:13:25;24.20;97.40
3705;DHT22;1868;48.918;9.438;2022-08-20T13:15:53;24.40;97.40
3705;DHT22;1868;48.918;9.438;2022-08-20T13:18:21;24.50;97.40
3705;DHT22;1868;48.918;9.438;2022-08-20T13:20:51;24.60;97.40
3705;DHT22;1868;48.918;9.438;2022-08-20T13:23:19;24.80;97.40
3705;DHT22;1868;48.918;9.438;2022-08-20T13:25:47;24.90;97.40
3705;DHT22;1868;48.918;9.438;2022-08-20T13:28:16;25.00;97.40
3705;DHT22;1868;48.918;9.438;2022-08-20T13:30:44;24.90;97.40
3705;DHT22;1868;48.918;9.438;2022-08-20T13:33:12;24.80;97.40
3705;DHT22;1868;48.918;9.438;2022-08-20T13:35:41;24.70;97.40
3705;DHT22;1868;48.918;9.438;2022-08-20T13:38:11;24.50;97.40
3705;DHT22;1868;48.918;9.438;2022-08-20T13:40:40;24.30;97.40
3705;DHT22;1868;48.918;9.438;2022-08-20T13:43:13;24.10;97.40
3705;DHT22;1868;48.918;9.438;2022-08-20T13:45:41;23.80;97.40
3705;DHT22;1868;48.918;9.438;2022-08-20T13:48:10;23.50;97.40
3705;DHT22;1868;48.918;9.438;2022-08-20T13:50:41;23.30;97.40
3705;DHT22;1868;48.918;9.438;2022-08-20T13:53:15;23.10;97.40
3705;DHT22;1868;48.918;9.438;2022-08-20T13:55:44;22.70;97.40
3705;DHT22;1868;48.918;9.438;2022-08-20T13:58:12;22.20;97.40
3705;DHT22;1868;48.918;9.438;2022-08-20T14:00:41;21.70;97.40
3705;DHT22;1868;48.918;9.438;2022-08-20T14:03:09;21.60;97.40
3705;DHT22;1868;48.918;9.438;2022-08-20T14:05:39;21.70;97.40
3705;DHT22;1868;48.918;9.438;2022-08-20T14:08:10;21.70;97.40
3705;DHT22;1868;48.918;9.438;2022-08-20T14:10:44;21.40;97.40
3705;DHT22;1868;48.918;9.438;2022-08-20T14:13:18;21.30;97.40
3705;DHT22;1868;48.918;9.438;2022-08-20T14:15:49;21.30;97.40
3705;DHT22;1868;48.918;9.438;2022-08-20T14:18:18;21.40;97.40
3705;DHT22;1868;48.918;9.438;2022-08-20T14:20:46;21.40;97.40
3705;DHT22;1868;48.918;9.438;2022-08-20T14:23:15;21.50;97.40
3705;DHT22;1868;48.918;9.438;2022-08-20T14:25:46;21.60;97.40
3705;DHT22;1868;48.918;9.438;2022-08-20T14:28:19;21.60;97.40
3705;DHT22;1868;48.918;9.438;2022-08-20T14:30:49;21.70;97.40
3705;DHT22;1868;48.918;9.438;2022-08-20T14:33:19;21.90;97.40
3705;DHT22;1868;48.918;9.438;2022-08-20T14:35:48;22.00;97.40
3705;DHT22;1868;48.918;9.438;2022-08-20T14:38:17;22.20;97.40
3705;DHT22;1868;48.918;9.438;2022-08-20T14:40:47;22.30;97.40
3705;DHT22;1868;48.918;9.438;2022-08-20T14:43:16;22.40;97.40
3705;DHT22;1868;48.918;9.438;2022-08-20T14:45:44;22.50;97.40
3705;DHT22;1868;48.918;9.438;2022-08-20T14:48:13;22.60;97.40
3705;DHT22;1868;48.918;9.438;2022-08-20T14:50:41;22.60;97.40
3705;DHT22;1868;48.918;9.438;2022-08-20T14:53:09;22.70;97.40
3705;DHT22;1868;48.918;9.438;2022-08-20T14:55:38;22.90;97.40
3705;DHT22;1868;48.918;9.438;2022-08-20T14:58:08;23.10;97.40
3705;DHT22;1868;48.918;9.438;2022-08-20T15:00:37;23.30;97.40
3705;DHT22;1868;48.918;9.438;2022-08-20T15:03:06;23.60;97.40
3705;DHT22;1868;48.918;9.438;2022-08-20T15:05:35;24.10;97.40
3705;DHT22;1868;48.918;9.438;2022-08-20T15:08:05;24.60;97.40
3705;DHT22;1868;48.918;9.438;2022-08-20T15:10:37;24.80;97.40
3705;DHT22;1868;48.918;9.438;2022-08-20T15:13:07;25.10;97.40
3705;DHT22;1868;48.918;9.438;2022-08-20T15:15:35;25.40;97.40
3705;DHT22;1868;48.918;9.438;2022-08-20T15:18:05;25.60;97.40
3705;DHT22;1868;48.918;9.438;2022-08-20T15:20:34;25.70;97.40
3705;DHT22;1868;48.918;9.438;2022-08-20T15:23:03;25.80;97.40
3705;DHT22;1868;48.918;9.438;2022-08-20T15:25:34;25.80;97.40
3705;DHT22;1868;48.918;9.438;2022-08-20T15:28:05;25.90;97.40
3705;DHT22;1868;48.918;9.438;2022-08-20T15:30:37;25.70;97.40
3705;DHT22;1868;48.918;9.438;2022-08-20T15:33:07;25.70;96.70
3705;DHT22;1868;48.918;9.438;2022-08-20T15:35:36;25.80;97.40
3705;DHT22;1868;48.918;9.438;2022-08-20T15:38:04;25.80;97.40
3705;DHT22;1868;48.918;9.438;2022-08-20T15:40:32;25.80;97.40
3705;DHT22;1868;48.918;9.438;2022-08-20T15:43:03;25.80;96.70
3705;DHT22;1868;48.918;9.438;2022-08-20T15:45:33;25.80;97.40
3705;DHT22;1868;48.918;9.438;2022-08-20T15:48:08;25.80;97.30
3705;DHT22;1868;48.918;9.438;2022-08-20T15:50:58;25.70;97.40
3705;DHT22;1868;48.918;9.438;2022-08-20T15:53:46;25.70;97.40
3705;DHT22;1868;48.918;9.438;2022-08-20T15:56:37;25.80;97.40
3705;DHT22;1868;48.918;9.438;2022-08-20T15:59:24;25.80;96.00
3705;DHT22;1868;48.918;9.438;2022-08-20T16:02:12;25.80;96.90
3705;DHT22;1868;48.918;9.438;2022-08-20T16:05:10;25.80;96.60
3705;DHT22;1868;48.918;9.438;2022-08-20T16:07:51;25.80;96.20
3705;DHT22;1868;48.918;9.438;2022-08-20T16:10:29;25.80;95.50
3705;DHT22;1868;48.918;9.438;2022-08-20T16:13:05;25.80;96.70
3705;DHT22;1868;48.918;9.438;2022-08-20T16:15:51;25.80;97.20
3705;DHT22;1868;48.918;9.438;2022-08-20T16:18:25;25.90;97.10
3705;DHT22;1868;48.918;9.438;2022-08-20T16:20:55;25.90;95.20
3705;DHT22;1868;48.918;9.438;2022-08-20T16:23:35;25.90;96.50
3705;DHT22;1868;48.918;9.438;2022-08-20T16:26:17;26.00;95.80
3705;DHT22;1868;48.918;9.438;2022-08-20T16:29:02;26.00;94.90
3705;DHT22;1868;48.918;9.438;2022-08-20T16:31:43;26.00;94.40